Accueil
METAR-TAF:

METAR-TAF

Aéroports :

Siegen, Allemagne

latitude: 50-42-28N, longitude: 008-04-59E, altitude: 602 m

Observation

Le bulletin a été fait il y a 7 heures et 45 minutes, à 18:50 UTC
Vent 14 kt de sud-est
Température 11°C
Humidité 50%
Pression 1008 hPa
Visibilité 10 km ou plus
pas de nuages en-dessous de 1500 mètres et pas de cumulonimbus.

METAR: EDGS 301850Z 13014KT CAVOK 11/01 Q1008

Heure: 04:35 (02:35 UTC)

Prévision

Le bulletin a été fait il y a 9 heures et 35 minutes, à 17:00 UTC
Prévision valable du 30 à 18 UTC au 01 à 03 UTC
Vent 15 kt de est/sud-est avec des rafales jusqu'à 25 kt
Visibilité 10 km ou plus
pas de nuages en-dessous de 1500 mètres et pas de cumulonimbus.
Temporairement
du 30 à 19 UTC au 30 à 23 UTC
Vent 13 kt de est/sud-est
Evoluant progressivement
du 30 à 23 UTC au 01 à 02 UTC
Vent 10 kt de est

TAF: EDGS 301700Z 3018/0103 11015G25KT CAVOK TEMPO 3019/3023 11013KT BECMG 3023/0102 10010KT

Observations et prévisions météorologiques de plus de 4000 aéroports (messages METAR et TAF).

Les stations disponibles sont représentées par des disques jaunes et rouges sur la carte.

Passer la souris dessus pour voir le nom de la station.

Cliquer dessus pour voir les observations et prévisions météorologiques.

Pour changer de carte: cliquez sur les boutons verts avec une croix noire pour zoomer, sur le bouton vert avec un tiret pour effectuer un zoom arrière, ou sur les flèches vertes pour les cartes adjacentes.


METAR-TAF: